createdAt,value
2023-05-25T00:01:26.552Z,91.21
2023-05-25T00:04:05.453Z,91.25
2023-05-25T00:06:41.454Z,91.25
2023-05-25T00:09:13.709Z,91.19
2023-05-25T00:11:43.586Z,91.47
2023-05-25T00:14:16.438Z,91.56
2023-05-25T00:16:48.539Z,91.67
2023-05-25T00:19:18.851Z,91.61
2023-05-25T00:21:52.258Z,91.76
2023-05-25T00:24:22.166Z,91.85
2023-05-25T00:26:52.021Z,91.72
2023-05-25T00:29:21.840Z,91.85
2023-05-25T00:31:51.981Z,91.96
2023-05-25T00:34:22.108Z,92.18
2023-05-25T00:36:54.590Z,92.36
2023-05-25T00:39:24.600Z,92.47
2023-05-25T00:41:55.987Z,92.64
2023-05-25T00:44:25.871Z,92.91
2023-05-25T00:46:56.059Z,92.82
2023-05-25T00:49:26.019Z,92.91
2023-05-25T00:52:01.221Z,93.13
2023-05-25T00:54:33.742Z,93.16
2023-05-25T00:57:07.147Z,93.34
2023-05-25T00:59:43.515Z,93.42
2023-05-25T01:02:17.605Z,93.54
2023-05-25T01:04:52.759Z,93.68
2023-05-25T01:07:26.496Z,93.89
2023-05-25T01:10:01.839Z,94.01
2023-05-25T01:12:32.500Z,94.18
2023-05-25T01:15:04.881Z,94.55
2023-05-25T01:17:38.383Z,94.84
2023-05-25T01:20:11.948Z,95.07
2023-05-25T01:22:50.505Z,95.42
2023-05-25T01:25:30.656Z,95.82
2023-05-25T01:28:05.097Z,96.05
2023-05-25T01:30:36.199Z,96.32
2023-05-25T01:33:06.943Z,96.63
2023-05-25T01:35:42.519Z,96.98
2023-05-25T01:38:18.389Z,97.20
2023-05-25T01:40:51.129Z,97.47
2023-05-25T01:43:25.831Z,97.75
2023-05-25T01:46:01.607Z,97.94
2023-05-25T01:48:43.809Z,98.27
2023-05-25T01:51:29.481Z,98.73
2023-05-25T01:54:13.582Z,99.07
2023-05-25T01:56:49.976Z,99.43
2023-05-25T01:59:39.443Z,99.78
2023-05-25T02:02:17.553Z,100.00
2023-05-25T02:04:47.889Z,100.00
2023-05-25T02:09:51.536Z,100.00
2023-05-25T02:12:23.203Z,100.00
2023-05-25T02:14:53.087Z,100.00
2023-05-25T02:17:23.072Z,100.00
2023-05-25T02:19:56.690Z,100.00
2023-05-25T02:22:29.039Z,100.00
2023-05-25T02:25:04.268Z,100.00
2023-05-25T02:27:34.186Z,100.00
2023-05-25T02:30:05.984Z,100.00
2023-05-25T02:32:54.034Z,100.00
2023-05-25T02:35:26.136Z,100.00
2023-05-25T02:37:58.254Z,99.95
2023-05-25T03:14:25.584Z,99.24
2023-05-25T03:16:55.468Z,99.29
2023-05-25T03:19:25.336Z,99.26
2023-05-25T03:21:55.204Z,99.32
2023-05-25T03:24:25.108Z,99.40
2023-05-25T03:26:54.960Z,99.67
2023-05-25T03:29:27.486Z,99.67
2023-05-25T03:31:57.355Z,99.79
2023-05-25T03:34:27.392Z,99.84
2023-05-25T03:37:01.052Z,100.00
2023-05-25T03:39:30.906Z,100.00
2023-05-25T03:42:01.221Z,100.00
2023-05-25T03:44:33.683Z,100.00
2023-05-25T03:47:03.555Z,100.00
2023-05-25T03:49:33.572Z,100.00
2023-05-25T03:52:03.497Z,100.00
2023-05-25T03:54:33.358Z,100.00
2023-05-25T03:57:09.926Z,100.00
2023-05-25T03:59:42.425Z,100.00
2023-05-25T04:02:12.286Z,100.00
2023-05-25T04:04:45.577Z,100.00
2023-05-25T04:07:15.483Z,100.00
2023-05-25T04:09:45.355Z,100.00
2023-05-25T04:12:15.227Z,100.00
2023-05-25T04:14:47.682Z,100.00
2023-05-25T04:17:17.714Z,100.00
2023-05-25T04:19:47.609Z,100.00
2023-05-25T04:22:17.638Z,100.00
2023-05-25T04:24:47.981Z,100.00
2023-05-25T04:27:17.997Z,100.00
2023-05-25T04:29:50.914Z,100.00
2023-05-25T04:32:21.695Z,100.00
2023-05-25T04:34:51.614Z,100.00
2023-05-25T04:37:21.797Z,100.00
2023-05-25T04:39:51.831Z,100.00
2023-05-25T04:42:24.188Z,100.00
2023-05-25T04:44:56.660Z,100.00
2023-05-25T04:47:27.023Z,100.00
2023-05-25T04:49:56.904Z,100.00
2023-05-25T04:52:26.775Z,100.00
2023-05-25T04:54:56.682Z,100.00
2023-05-25T04:57:30.926Z,100.00
2023-05-25T05:00:03.505Z,100.00
2023-05-25T05:02:33.487Z,100.00
2023-05-25T05:05:04.094Z,100.00
2023-05-25T05:07:34.022Z,100.00
2023-05-25T05:10:03.867Z,100.00
2023-05-25T05:12:33.747Z,100.00
2023-05-25T05:15:06.545Z,100.00
2023-05-25T05:17:42.459Z,100.00
2023-05-25T05:20:15.295Z,100.00
2023-05-25T05:22:46.053Z,100.00
2023-05-25T05:25:15.929Z,100.00
2023-05-25T05:27:45.924Z,100.00
2023-05-25T05:30:19.201Z,100.00
2023-05-25T05:32:49.549Z,100.00
2023-05-25T05:35:19.751Z,100.00
2023-05-25T05:37:50.089Z,100.00
2023-05-25T05:40:20.116Z,100.00
2023-05-25T05:42:51.104Z,100.00
2023-05-25T05:45:23.586Z,100.00
2023-05-25T05:47:54.055Z,100.00
2023-05-25T05:50:24.447Z,100.00
2023-05-25T05:52:55.235Z,100.00
2023-05-25T05:55:25.186Z,100.00
2023-05-25T05:57:55.027Z,100.00
2023-05-25T06:00:27.846Z,100.00
2023-05-25T06:03:04.906Z,100.00
2023-05-25T06:05:34.908Z,100.00
2023-05-25T06:08:06.042Z,100.00
2023-05-25T06:10:36.197Z,100.00
2023-05-25T06:13:07.619Z,100.00
2023-05-25T06:15:40.870Z,99.81
2023-05-25T06:18:11.906Z,99.27
2023-05-25T06:20:42.163Z,99.35
2023-05-25T06:23:14.299Z,98.98
2023-05-25T06:25:46.890Z,98.65
2023-05-25T06:28:17.157Z,98.22
2023-05-25T06:30:49.651Z,98.10
2023-05-25T06:33:19.644Z,97.53
2023-05-25T06:35:51.049Z,96.58
2023-05-25T06:38:21.007Z,95.89
2023-05-25T06:40:50.813Z,95.28
2023-05-25T06:43:20.667Z,94.88
2023-05-25T06:45:54.733Z,94.21
2023-05-25T06:48:24.587Z,93.55
2023-05-25T06:50:54.457Z,92.85
2023-05-25T06:53:24.312Z,92.80
2023-05-25T06:55:54.210Z,92.98
2023-05-25T06:58:24.135Z,92.79
2023-05-25T07:00:57.745Z,92.19
2023-05-25T07:03:28.446Z,91.73
2023-05-25T07:05:58.520Z,91.16
2023-05-25T07:08:28.422Z,90.88
2023-05-25T07:10:58.299Z,90.08
2023-05-25T07:13:28.224Z,89.09
2023-05-25T07:16:00.721Z,88.83
2023-05-25T07:18:32.124Z,87.61
2023-05-25T07:21:02.372Z,86.02
2023-05-25T07:23:32.254Z,85.12
2023-05-25T07:26:04.211Z,84.58
2023-05-25T07:28:35.610Z,83.60
2023-05-25T07:31:09.720Z,82.67
2023-05-25T07:33:41.538Z,81.74
2023-05-25T07:36:12.787Z,81.20
2023-05-25T07:38:44.042Z,81.40
2023-05-25T07:41:14.904Z,81.68
2023-05-25T07:43:47.804Z,81.66
2023-05-25T07:46:25.460Z,81.71
2023-05-25T07:49:00.146Z,81.39
2023-05-25T07:51:35.994Z,81.19
2023-05-25T07:54:06.001Z,81.58
2023-05-25T07:56:35.918Z,81.90
2023-05-25T07:59:08.563Z,81.96
2023-05-25T08:01:41.072Z,81.09
2023-05-25T08:04:16.692Z,80.33
2023-05-25T08:06:53.243Z,79.42
2023-05-25T08:09:23.068Z,78.51
2023-05-25T08:12:07.710Z,77.98
2023-05-25T08:14:51.126Z,77.43
2023-05-25T08:17:23.939Z,76.60
2023-05-25T08:19:56.517Z,76.00
2023-05-25T08:22:29.266Z,75.89
2023-05-25T08:25:01.513Z,76.08
2023-05-25T08:27:33.492Z,75.82
2023-05-25T08:30:12.128Z,75.27
2023-05-25T08:32:46.838Z,75.11
2023-05-25T08:35:19.769Z,74.86
2023-05-25T08:37:49.732Z,75.46
2023-05-25T08:40:21.621Z,75.39
2023-05-25T08:42:54.211Z,74.86
2023-05-25T08:45:37.525Z,74.12
2023-05-25T08:48:31.751Z,73.20
2023-05-25T08:51:11.777Z,72.75
2023-05-25T08:53:43.739Z,72.81
2023-05-25T08:56:19.948Z,72.48
2023-05-25T08:59:01.091Z,71.76
2023-05-25T09:01:35.345Z,72.12
2023-05-25T09:04:14.330Z,72.55
2023-05-25T09:06:57.090Z,72.70
2023-05-25T09:09:32.718Z,72.20
2023-05-25T09:12:02.721Z,71.81
2023-05-25T09:14:32.807Z,71.77
2023-05-25T09:17:06.769Z,72.21
2023-05-25T09:19:39.607Z,71.90
2023-05-25T09:24:44.869Z,72.76
2023-05-25T09:27:18.404Z,73.48
2023-05-25T09:29:50.883Z,73.76
2023-05-25T09:32:21.879Z,73.67
2023-05-25T09:34:55.806Z,74.59
2023-05-25T09:37:26.232Z,74.22
2023-05-25T09:39:56.154Z,73.83
2023-05-25T09:42:26.407Z,73.94
2023-05-25T09:44:56.248Z,73.72
2023-05-25T09:47:26.137Z,73.54
2023-05-25T09:50:02.087Z,73.95
2023-05-25T09:52:31.912Z,74.25
2023-05-25T09:55:04.630Z,74.58
2023-05-25T09:57:34.533Z,74.25
2023-05-25T10:00:10.433Z,74.29
2023-05-25T10:02:41.456Z,74.21
2023-05-25T10:05:14.201Z,74.27
2023-05-25T10:07:49.326Z,74.67
2023-05-25T10:10:22.413Z,74.87
2023-05-25T10:12:55.903Z,74.70
2023-05-25T10:15:26.189Z,74.37
2023-05-25T10:17:57.998Z,73.91
2023-05-25T10:20:32.758Z,73.77
2023-05-25T10:23:08.205Z,73.88
2023-05-25T10:25:43.064Z,73.18
2023-05-25T10:28:20.322Z,73.18
2023-05-25T10:30:52.244Z,73.46
2023-05-25T10:33:24.058Z,73.39
2023-05-25T10:36:09.174Z,73.34
2023-05-25T10:38:47.885Z,73.51
2023-05-25T10:41:18.905Z,73.80
2023-05-25T10:43:55.485Z,73.63
2023-05-25T10:46:25.514Z,73.50
2023-05-25T10:49:00.914Z,73.86
2023-05-25T10:51:45.581Z,73.97
2023-05-25T10:54:19.115Z,74.31
2023-05-25T10:57:14.478Z,74.89
2023-05-25T10:59:51.133Z,74.61
2023-05-25T11:02:23.650Z,73.48
2023-05-25T11:04:53.827Z,73.55
2023-05-25T11:07:26.336Z,72.96
2023-05-25T11:10:01.773Z,72.70
2023-05-25T11:12:33.923Z,72.19
2023-05-25T11:15:17.571Z,71.07
2023-05-25T11:18:03.908Z,70.68
2023-05-25T11:20:38.317Z,70.51
2023-05-25T11:23:29.780Z,71.28
2023-05-25T11:26:08.224Z,71.89
2023-05-25T11:28:48.011Z,72.32
2023-05-25T11:31:18.005Z,72.09
2023-05-25T11:33:48.595Z,72.80
2023-05-25T11:36:20.672Z,72.78
2023-05-25T11:39:04.692Z,72.26
2023-05-25T11:41:43.806Z,72.37
2023-05-25T11:44:14.969Z,72.82
2023-05-25T11:46:49.928Z,73.11
2023-05-25T11:49:24.421Z,73.24
2023-05-25T11:51:56.975Z,72.57
2023-05-25T11:54:31.656Z,72.36
2023-05-25T11:57:02.903Z,72.26
2023-05-25T11:59:39.761Z,71.77
2023-05-25T12:02:09.752Z,71.52
2023-05-25T12:04:46.598Z,71.08
2023-05-25T12:07:16.487Z,70.70
2023-05-25T12:09:49.003Z,71.03
2023-05-25T12:12:19.734Z,70.67
2023-05-25T12:14:50.947Z,70.78
2023-05-25T12:17:21.959Z,71.32
2023-05-25T12:19:52.266Z,71.30
2023-05-25T12:22:22.962Z,71.78
2023-05-25T12:24:55.481Z,71.55
2023-05-25T12:27:26.035Z,71.74
2023-05-25T12:29:56.010Z,72.43
2023-05-25T12:32:25.950Z,72.77
2023-05-25T12:35:05.478Z,72.32
2023-05-25T12:37:36.199Z,72.63
2023-05-25T12:40:20.634Z,73.47
2023-05-25T12:42:59.091Z,73.71
2023-05-25T12:45:35.732Z,72.81
2023-05-25T12:48:05.687Z,72.23
2023-05-25T12:50:37.193Z,72.13
2023-05-25T12:53:07.661Z,71.72
2023-05-25T12:55:41.774Z,71.64
2023-05-25T12:58:31.195Z,71.99
2023-05-25T13:01:01.173Z,72.17
2023-05-25T13:03:32.686Z,72.58
2023-05-25T13:06:06.444Z,72.45
2023-05-25T13:08:36.378Z,72.33
2023-05-25T13:11:08.803Z,72.75
2023-05-25T13:13:38.658Z,72.30
2023-05-25T13:16:09.116Z,72.18
2023-05-25T13:18:39.028Z,72.82
2023-05-25T13:21:10.298Z,72.77
2023-05-25T13:23:40.203Z,72.72
2023-05-25T13:26:13.545Z,72.90
2023-05-25T13:28:43.690Z,73.13
2023-05-25T13:31:13.646Z,73.10
2023-05-25T13:33:43.527Z,73.16
2023-05-25T13:36:13.409Z,73.37
2023-05-25T13:38:43.262Z,73.23
2023-05-25T13:41:16.709Z,73.15
2023-05-25T13:43:46.656Z,73.38
2023-05-25T13:46:32.989Z,74.29
2023-05-25T13:49:04.399Z,74.42
2023-05-25T13:51:35.935Z,74.18
2023-05-25T13:54:05.932Z,74.07
2023-05-25T13:56:38.482Z,74.42
2023-05-25T13:59:08.360Z,74.35
2023-05-25T14:01:38.258Z,73.81
2023-05-25T14:04:11.979Z,73.95
2023-05-25T14:06:41.910Z,74.39
2023-05-25T14:09:13.579Z,74.35
2023-05-25T14:11:46.629Z,74.03
2023-05-25T14:14:29.990Z,74.09
2023-05-25T14:17:01.601Z,74.17
2023-05-25T14:19:33.847Z,74.51
2023-05-25T14:22:13.370Z,74.65
2023-05-25T14:24:49.809Z,74.47
2023-05-25T14:27:23.330Z,74.16
2023-05-25T14:29:58.083Z,74.39
2023-05-25T14:32:29.138Z,74.28
2023-05-25T14:35:10.419Z,73.44
2023-05-25T14:37:40.337Z,73.34
2023-05-25T14:40:11.537Z,73.71
2023-05-25T14:42:44.053Z,73.87
2023-05-25T14:45:16.124Z,74.17
2023-05-25T14:47:55.622Z,74.36
2023-05-25T14:50:34.165Z,74.53
2023-05-25T14:53:05.478Z,74.12
2023-05-25T14:55:35.342Z,74.20
2023-05-25T14:58:07.886Z,74.19
2023-05-25T15:00:37.922Z,74.59
2023-05-25T15:03:13.119Z,74.93
2023-05-25T15:05:43.933Z,74.96
2023-05-25T15:08:17.896Z,74.70
2023-05-25T15:10:47.845Z,74.86
2023-05-25T15:13:23.678Z,74.85
2023-05-25T15:15:57.909Z,74.72
2023-05-25T15:18:28.074Z,74.65
2023-05-25T15:21:00.307Z,74.75
2023-05-25T15:23:31.793Z,74.96
2023-05-25T15:26:04.480Z,75.20
2023-05-25T15:28:38.341Z,75.24
2023-05-25T15:31:11.363Z,75.73
2023-05-25T15:33:58.219Z,75.53
2023-05-25T15:36:33.235Z,75.59
2023-05-25T15:39:03.462Z,75.70
2023-05-25T15:41:45.012Z,75.68
2023-05-25T15:44:19.514Z,75.65
2023-05-25T15:46:50.595Z,75.57
2023-05-25T15:49:22.235Z,75.29
2023-05-25T15:51:53.539Z,75.13
2023-05-25T15:54:29.601Z,75.17
2023-05-25T15:57:08.609Z,74.60
2023-05-25T15:59:43.859Z,74.50
2023-05-25T16:02:16.923Z,74.83
2023-05-25T16:04:48.293Z,75.10
2023-05-25T16:07:25.583Z,75.20
2023-05-25T16:09:56.509Z,75.78
2023-05-25T16:12:28.696Z,76.07
2023-05-25T16:15:01.187Z,76.21
2023-05-25T16:17:35.774Z,76.23
2023-05-25T16:20:12.818Z,76.17
2023-05-25T16:22:42.757Z,76.48
2023-05-25T16:25:16.347Z,76.33
2023-05-25T16:27:50.966Z,76.74
2023-05-25T16:30:26.144Z,76.76
2023-05-25T16:32:59.449Z,77.03
2023-05-25T16:35:34.702Z,77.25
2023-05-25T16:38:06.861Z,77.45
2023-05-25T16:40:41.221Z,77.45
2023-05-25T16:43:11.147Z,77.55
2023-05-25T16:45:43.908Z,77.54
2023-05-25T16:48:15.606Z,77.54
2023-05-25T16:50:48.186Z,77.22
2023-05-25T16:53:20.897Z,77.04
2023-05-25T16:55:53.847Z,77.17
2023-05-25T16:58:24.963Z,77.24
2023-05-25T17:00:57.612Z,77.45
2023-05-25T17:03:35.645Z,77.55
2023-05-25T17:06:12.570Z,77.78
2023-05-25T17:09:03.872Z,77.74
2023-05-25T17:11:36.130Z,77.70
2023-05-25T17:14:06.199Z,77.88
2023-05-25T17:16:41.407Z,77.80
2023-05-25T17:19:15.380Z,77.64
2023-05-25T17:21:55.448Z,77.65
2023-05-25T17:24:25.272Z,77.40
2023-05-25T17:26:55.161Z,77.63
2023-05-25T17:29:26.650Z,77.93
2023-05-25T17:32:04.689Z,78.12
2023-05-25T17:34:34.693Z,78.53
2023-05-25T17:37:04.586Z,78.95
2023-05-25T17:39:37.909Z,79.47
2023-05-25T17:42:08.660Z,79.17
2023-05-25T17:44:42.724Z,79.55
2023-05-25T17:47:15.232Z,79.57
2023-05-25T17:50:03.485Z,79.49
2023-05-25T17:52:34.567Z,79.63
2023-05-25T17:55:09.701Z,79.52
2023-05-25T17:57:39.603Z,79.62
2023-05-25T18:00:13.632Z,79.75
2023-05-25T18:02:46.489Z,79.87
2023-05-25T18:05:16.392Z,79.74
2023-05-25T18:07:49.282Z,79.83
2023-05-25T18:10:25.570Z,79.75
2023-05-25T18:12:58.328Z,80.03
2023-05-25T18:15:35.771Z,80.06
2023-05-25T18:18:12.111Z,80.36
2023-05-25T18:20:42.866Z,80.41
2023-05-25T18:23:13.534Z,80.49
2023-05-25T18:25:43.487Z,80.63
2023-05-25T18:28:16.710Z,80.90
2023-05-25T18:30:49.381Z,80.84
2023-05-25T18:33:21.937Z,80.79
2023-05-25T18:35:51.805Z,80.81
2023-05-25T18:38:24.176Z,81.17
2023-05-25T18:40:56.505Z,81.16
2023-05-25T18:43:26.395Z,81.19
2023-05-25T18:45:56.339Z,81.13
2023-05-25T18:48:28.845Z,81.07
2023-05-25T18:51:03.308Z,80.97
2023-05-25T18:53:34.213Z,81.32
2023-05-25T18:56:06.436Z,81.35
2023-05-25T18:58:36.309Z,81.19
2023-05-25T19:01:16.097Z,81.28
2023-05-25T19:03:58.767Z,81.41
2023-05-25T19:06:33.749Z,81.43
2023-05-25T19:09:06.880Z,81.40
2023-05-25T19:11:40.128Z,81.42
2023-05-25T19:14:10.077Z,81.51
2023-05-25T19:16:42.693Z,81.61
2023-05-25T19:19:15.170Z,81.87
2023-05-25T19:21:49.451Z,82.08
2023-05-25T19:24:20.048Z,81.96
2023-05-25T19:26:50.078Z,82.19
2023-05-25T19:29:23.523Z,82.31
2023-05-25T19:31:54.774Z,82.55
2023-05-25T19:34:30.344Z,82.59
2023-05-25T19:37:10.596Z,82.76
2023-05-25T19:39:41.313Z,82.93
2023-05-25T19:42:18.731Z,82.96
2023-05-25T19:44:48.569Z,82.82
2023-05-25T19:47:18.456Z,83.05
2023-05-25T19:50:00.054Z,83.00
2023-05-25T19:52:31.012Z,82.93
2023-05-25T19:55:00.861Z,83.08
2023-05-25T19:57:33.365Z,83.12
2023-05-25T20:00:04.667Z,83.11
2023-05-25T20:02:41.782Z,83.26
2023-05-25T20:05:14.556Z,83.10
2023-05-25T20:07:47.603Z,83.10
2023-05-25T20:10:26.421Z,83.16
2023-05-25T20:13:00.828Z,83.18
2023-05-25T20:15:51.317Z,83.07
2023-05-25T20:18:21.262Z,83.08
2023-05-25T20:20:59.462Z,83.15
2023-05-25T20:23:30.504Z,83.28
2023-05-25T20:26:00.388Z,83.63
2023-05-25T20:28:30.237Z,83.79
2023-05-25T20:31:03.114Z,84.12
2023-05-25T20:33:33.066Z,84.47
2023-05-25T20:36:05.564Z,84.74
2023-05-25T20:38:35.385Z,85.19
2023-05-25T20:41:05.231Z,85.22
2023-05-25T20:43:38.229Z,85.22
2023-05-25T20:46:11.672Z,85.05
2023-05-25T20:48:45.901Z,85.07
2023-05-25T20:51:18.388Z,85.04
2023-05-25T20:53:49.587Z,85.12
2023-05-25T20:56:26.820Z,85.06
2023-05-25T21:13:41.244Z,85.84
2023-05-25T21:16:11.227Z,85.95
2023-05-25T21:18:41.117Z,86.17
2023-05-25T21:21:11.499Z,86.23
2023-05-25T21:23:41.677Z,86.42
2023-05-25T21:26:11.752Z,86.39
2023-05-25T21:28:46.555Z,86.37
2023-05-25T21:31:16.500Z,86.29
2023-05-25T21:33:47.598Z,86.43
2023-05-25T21:36:17.672Z,86.39
2023-05-25T21:38:47.641Z,86.29
2023-05-25T21:41:17.986Z,86.43
2023-05-25T21:43:51.074Z,86.43
2023-05-25T21:46:21.005Z,86.47
2023-05-25T21:48:50.943Z,86.42
2023-05-25T21:51:20.810Z,86.49
2023-05-25T21:53:50.822Z,86.54
2023-05-25T21:56:21.140Z,86.59
2023-05-25T21:58:53.681Z,86.60
2023-05-25T22:01:23.764Z,86.61
2023-05-25T22:03:53.871Z,86.78
2023-05-25T22:06:23.763Z,86.81
2023-05-25T22:08:53.679Z,86.54
2023-05-25T22:11:24.720Z,86.67
2023-05-25T22:13:57.815Z,86.75
2023-05-25T22:16:27.807Z,86.56
2023-05-25T22:19:02.249Z,86.42
2023-05-25T22:21:32.123Z,86.31
2023-05-25T22:24:02.366Z,86.24
2023-05-25T22:26:32.257Z,86.35
2023-05-25T22:29:04.787Z,86.17
2023-05-25T22:31:34.731Z,86.29
2023-05-25T22:34:05.461Z,86.30
2023-05-25T22:36:37.481Z,86.39
2023-05-25T22:39:07.584Z,86.56
2023-05-25T22:41:37.532Z,86.69
2023-05-25T22:44:10.195Z,86.79
2023-05-25T22:46:40.182Z,86.76
2023-05-25T22:49:10.148Z,86.79
2023-05-25T22:51:40.909Z,86.75
2023-05-25T22:54:10.765Z,86.59
2023-05-25T22:56:40.640Z,86.37
2023-05-25T22:59:13.111Z,86.54
2023-05-25T23:01:43.039Z,86.48
2023-05-25T23:04:13.149Z,86.58
2023-05-25T23:06:43.928Z,86.59
2023-05-25T23:09:13.972Z,86.62
2023-05-25T23:11:43.797Z,86.64
2023-05-25T23:14:21.604Z,86.92
2023-05-25T23:16:51.440Z,86.93
2023-05-25T23:19:21.334Z,86.80
2023-05-25T23:21:51.605Z,87.00
2023-05-25T23:24:21.473Z,86.81
2023-05-25T23:26:52.807Z,86.82
2023-05-25T23:29:25.289Z,86.82
2023-05-25T23:31:55.172Z,86.84
2023-05-25T23:34:25.782Z,86.75
2023-05-25T23:36:57.976Z,86.79
2023-05-25T23:39:28.003Z,86.89
2023-05-25T23:41:57.883Z,86.93
2023-05-25T23:44:30.313Z,87.01
2023-05-25T23:47:00.204Z,87.05
2023-05-25T23:49:30.061Z,87.05
2023-05-25T23:52:00.009Z,87.05
2023-05-25T23:54:29.891Z,87.07
2023-05-25T23:56:59.824Z,86.96
2023-05-25T23:59:34.575Z,86.65
